Time;durP1;ratioP1;P1;durP2;ratioP2;P2;SDS_P1;SDS_P2;PMS_P1;PMS_P2;Temp;Humidity;BMP_temperature;BMP_pressure;BME280_temperature;BME280_humidity;BME280_pressure;Samples;Min_cycle;Max_cycle;Signal;HPM_P1;HPM_P2
2021/07/04 00:02:14;;;;;;;14.23;13.03;;;19.20;95.80;;;;;;5135333;28;20399;-90
2021/07/04 00:04:57;;;;;;;12.70;11.63;;;20.30;95.50;;;;;;5132951;28;20482;-91
2021/07/04 00:07:23;;;;;;;13.87;12.90;;;21.90;96.70;;;;;;5130872;28;20419;-90
2021/07/04 00:09:49;;;;;;;13.63;12.33;;;18.50;98.00;;;;;;5127948;28;20422;-91
2021/07/04 00:12:21;;;;;;;12.67;11.80;;;23.00;98.70;;;;;;5129579;28;20633;-91
2021/07/04 00:14:47;;;;;;;12.80;11.83;;;20.40;97.10;;;;;;5131336;28;20173;-91
2021/07/04 00:17:14;;;;;;;12.60;11.70;;;22.80;99.90;;;;;;5130474;28;20430;-90
2021/07/04 00:19:46;;;;;;;12.63;11.53;;;19.90;99.20;;;;;;5129990;28;20273;-91
2021/07/04 00:22:15;;;;;;;13.10;12.00;;;20.20;95.10;;;;;;5130065;28;20510;-91
2021/07/04 00:24:43;;;;;;;12.80;11.90;;;22.70;99.40;;;;;;5115316;28;21004;-90
2021/07/04 00:27:09;;;;;;;12.30;11.30;;;18.30;95.30;;;;;;5134770;28;20442;-90
2021/07/04 00:29:34;;;;;;;12.60;11.80;;;22.10;98.40;;;;;;5136659;28;20414;-90
2021/07/04 00:32:00;;;;;;;13.20;12.30;;;19.70;98.20;;;;;;5136061;28;20203;-90
2021/07/04 00:34:27;;;;;;;11.67;10.67;;;20.10;99.00;;;;;;5136189;28;20184;-90
2021/07/04 00:36:53;;;;;;;12.23;11.33;;;18.40;93.30;;;;;;5135576;28;20407;-90
2021/07/04 00:39:19;;;;;;;12.90;11.90;;;22.20;98.60;;;;;;5139322;28;20423;-91
2021/07/04 00:41:48;;;;;;;12.90;11.90;;;22.50;99.00;;;;;;5121077;28;20179;-90
2021/07/04 00:44:15;;;;;;;12.40;11.43;;;20.90;98.80;;;;;;5136188;28;20474;-90
2021/07/04 00:46:41;;;;;;;12.90;11.80;;;19.30;96.50;;;;;;5136448;28;20821;-90
2021/07/04 00:49:08;;;;;;;11.97;11.17;;;20.00;99.30;;;;;;5118494;28;20439;-90
2021/07/04 00:51:35;;;;;;;13.07;11.93;;;20.30;95.90;;;;;;5136712;28;20415;-90
2021/07/04 00:54:04;;;;;;;12.40;11.50;;;21.80;99.50;;;;;;5134163;28;20422;-90
2021/07/04 00:56:32;;;;;;;12.70;11.50;;;20.80;96.00;;;;;;5135293;28;20501;-90
2021/07/04 00:59:02;;;;;;;11.50;10.60;;;21.10;96.90;;;;;;5108529;28;20917;-91
2021/07/04 01:01:32;;;;;;;11.43;10.50;;;20.00;95.00;;;;;;5134684;28;20406;-91
2021/07/04 01:03:58;;;;;;;12.40;11.50;;;19.50;96.40;;;;;;5120058;28;20458;-89
2021/07/04 01:06:26;;;;;;;11.57;10.77;;;20.20;94.60;;;;;;5134332;28;20443;-89
2021/07/04 01:08:53;;;;;;;11.97;11.07;;;20.20;97.60;;;;;;5134410;28;20831;-90
2021/07/04 01:11:20;;;;;;;12.50;11.70;;;20.20;94.30;;;;;;5135968;28;20487;-91
2021/07/04 01:13:46;;;;;;;13.80;12.70;;;25.00;98.80;;;;;;5120837;28;20423;-90
2021/07/04 01:16:14;;;;;;;12.30;11.33;;;19.90;97.60;;;;;;5120046;28;20928;-90
2021/07/04 01:18:40;;;;;;;12.47;11.47;;;22.00;98.10;;;;;;5136834;28;20422;-90
2021/07/04 01:21:08;;;;;;;12.57;11.73;;;20.50;96.50;;;;;;5120034;28;20411;-90
2021/07/04 01:23:42;;;;;;;12.60;11.73;;;19.70;94.10;;;;;;5137964;28;20399;-91
2021/07/04 01:26:09;;;;;;;12.23;10.50;;;20.50;93.80;;;;;;5136821;28;20513;-90
2021/07/04 01:28:35;;;;;;;11.03;10.40;;;19.80;96.20;;;;;;5118987;28;20510;-90
2021/07/04 01:31:03;;;;;;;12.50;11.70;;;22.80;97.10;;;;;;5134640;28;20427;-90
2021/07/04 01:33:32;;;;;;;11.87;10.97;;;19.60;93.20;;;;;;5133523;28;20391;-90
2021/07/04 01:36:00;;;;;;;11.63;10.83;;;20.10;95.70;;;;;;5134393;28;20422;-91
2021/07/04 01:38:27;;;;;;;12.50;11.60;;;19.60;93.70;;;;;;5115811;28;20447;-89
2021/07/04 01:40:53;;;;;;;12.60;11.50;;;21.40;95.80;;;;;;5116831;28;20419;-90
2021/07/04 01:43:20;;;;;;;12.60;11.60;;;20.50;96.20;;;;;;5135855;28;20407;-90
2021/07/04 01:45:50;;;;;;;13.90;12.80;;;21.10;95.90;;;;;;5136594;28;20520;-92
2021/07/04 01:48:17;;;;;;;12.97;12.07;;;19.70;94.80;;;;;;5119060;28;20423;-90
2021/07/04 01:50:50;;;;;;;12.70;11.80;;;22.30;95.50;;;;;;5133867;28;20458;-91
2021/07/04 01:53:18;;;;;;;11.87;11.13;;;19.70;92.80;;;;;;5133956;28;20419;-90
2021/07/04 01:55:44;;;;;;;11.37;10.57;;;20.00;94.90;;;;;;5132919;28;20435;-90
2021/07/04 01:58:15;;;;;;;12.97;11.97;;;20.50;96.70;;;;;;5135535;28;20918;-90
2021/07/04 02:00:41;;;;;;;13.37;12.37;;;23.30;96.00;;;;;;5134567;28;20419;-91
2021/07/04 02:03:17;;;;;;;12.90;12.00;;;20.20;94.10;;;;;;5134320;28;20412;-90
2021/07/04 02:05:48;;;;;;;12.73;11.70;;;18.40;92.50;;;;;;5135559;28;20458;-90
2021/07/04 02:08:17;;;;;;;11.60;10.70;;;21.10;94.90;;;;;;5132840;28;20464;-90
2021/07/04 02:10:46;;;;;;;12.53;11.40;;;21.50;94.60;;;;;;5138120;28;20422;-91
2021/07/04 02:13:12;;;;;;;14.40;13.20;;;19.70;95.80;;;;;;5118138;28;20407;-90
2021/07/04 02:15:41;;;;;;;15.63;14.33;;;20.00;95.60;;;;;;5135493;28;20415;-90
2021/07/04 02:18:12;;;;;;;13.43;12.43;;;21.60;94.70;;;;;;5134882;28;20423;-90
2021/07/04 02:20:48;;;;;;;13.80;12.90;;;21.80;95.20;;;;;;5135644;28;20415;-90
2021/07/04 02:23:20;;;;;;;14.30;12.83;;;20.80;95.40;;;;;;5135267;28;20417;-91
2021/07/04 02:25:47;;;;;;;14.03;13.03;;;19.20;93.80;;;;;;5133845;28;20466;-91
2021/07/04 02:28:18;;;;;;;13.53;12.63;;;20.40;95.30;;;;;;5131862;28;20569;-91
2021/07/04 02:30:46;;;;;;;15.77;14.43;;;20.80;95.90;;;;;;5130386;28;20411;-91
2021/07/04 02:33:14;;;;;;;13.90;12.80;;;19.70;95.60;;;;;;5130459;28;20426;-91
2021/07/04 02:35:47;;;;;;;13.50;12.50;;;19.70;96.00;;;;;;5130112;28;20419;-90
2021/07/04 02:38:13;;;;;;;12.90;12.00;;;19.40;93.90;;;;;;5132941;28;20403;-90
2021/07/04 02:40:40;;;;;;;11.83;10.70;;;19.70;95.70;;;;;;5133998;28;20419;-90
2021/07/04 02:43:13;;;;;;;13.37;12.03;;;19.80;96.20;;;;;;5132104;28;20890;-90
2021/07/04 02:45:44;;;;;;;13.60;12.60;;;21.20;96.10;;;;;;5115278;28;20501;-90
2021/07/04 02:48:10;;;;;;;13.67;12.73;;;19.50;94.60;;;;;;5133092;28;20459;-91
2021/07/04 02:50:42;;;;;;;14.70;13.50;;;20.30;95.00;;;;;;5131626;28;20450;-91
2021/07/04 02:53:11;;;;;;;13.17;12.13;;;18.60;95.00;;;;;;5131705;28;20411;-91
2021/07/04 02:55:39;;;;;;;14.60;13.50;;;19.40;99.90;;;;;;5132480;28;20410;-91
2021/07/04 02:58:06;;;;;;;13.57;12.57;;;21.00;98.40;;;;;;5132001;28;20431;-90
2021/07/04 03:00:32;;;;;;;13.20;12.27;;;21.40;95.40;;;;;;5134980;28;20912;-90
2021/07/04 03:02:58;;;;;;;14.70;13.60;;;20.90;96.30;;;;;;5136434;28;20410;-90
2021/07/04 03:05:26;;;;;;;13.20;12.17;;;21.10;97.80;;;;;;5135084;28;20568;-90
2021/07/04 03:07:57;;;;;;;15.07;13.50;;;19.20;96.40;;;;;;5136876;28;20153;-91
2021/07/04 03:10:24;;;;;;;15.13;13.93;;;19.20;96.60;;;;;;5135074;28;20399;-91
2021/07/04 03:12:51;;;;;;;14.40;13.20;;;19.50;98.00;;;;;;5135898;28;20398;-92
2021/07/04 03:15:18;;;;;;;14.07;13.10;;;19.10;96.30;;;;;;5138429;28;20150;-91
2021/07/04 03:17:43;;;;;;;15.00;13.80;;;18.00;96.30;;;;;;5136006;28;20428;-91
2021/07/04 03:20:11;;;;;;;14.73;13.50;;;19.10;99.90;;;;;;5134963;28;20430;-89
2021/07/04 03:22:37;;;;;;;15.27;14.03;;;18.80;97.00;;;;;;5132096;28;20218;-90
2021/07/04 03:25:05;;;;;;;16.20;14.80;;;20.70;99.60;;;;;;5131808;28;20462;-91
2021/07/04 03:27:32;;;;;;;16.47;14.70;;;18.80;97.60;;;;;;5131211;28;20451;-90
2021/07/04 03:29:59;;;;;;;16.53;15.20;;;19.00;97.20;;;;;;5129860;28;20415;-90
2021/07/04 03:32:26;;;;;;;15.93;14.57;;;19.20;97.60;;;;;;5133598;28;20410;-88
2021/07/04 03:34:52;;;;;;;16.10;14.90;;;18.50;97.20;;;;;;5137213;28;20431;-89
2021/07/04 03:37:19;;;;;;;16.33;14.90;;;19.30;99.90;;;;;;5100382;28;20427;-90
2021/07/04 03:39:46;;;;;;;16.60;15.10;;;17.10;98.80;;;;;;5129835;28;20406;-90
2021/07/04 03:42:12;;;;;;;15.47;14.27;;;20.60;98.50;;;;;;5129027;28;20450;-89
2021/07/04 03:44:38;;;;;;;15.03;13.83;;;20.90;99.90;;;;;;5129427;28;20458;-90
2021/07/04 03:47:06;;;;;;;15.60;14.37;;;22.70;99.90;;;;;;5095219;28;20181;-90
2021/07/04 03:49:32;;;;;;;14.07;13.10;;;20.00;98.50;;;;;;5130555;28;20422;-90
2021/07/04 03:51:58;;;;;;;14.17;13.27;;;22.20;99.90;;;;;;5113899;28;20431;-90
2021/07/04 03:54:24;;;;;;;14.93;13.80;;;18.40;98.00;;;;;;5130953;28;20444;-90
2021/07/04 03:56:51;;;;;;;14.53;13.40;;;19.70;99.90;;;;;;5131481;28;20411;-90
2021/07/04 03:59:18;;;;;;;15.50;14.40;;;20.60;99.00;;;;;;5130156;28;20419;-91
2021/07/04 04:01:44;;;;;;;15.77;14.53;;;21.00;99.90;;;;;;5129430;28;20444;-91
2021/07/04 04:04:12;;;;;;;15.70;14.60;;;21.30;99.90;;;;;;5129338;28;20450;-90
2021/07/04 04:06:37;;;;;;;16.57;15.23;;;18.90;98.00;;;;;;5112601;28;20474;-91
2021/07/04 04:09:03;;;;;;;17.73;16.33;;;19.70;99.90;;;;;;5130807;28;20404;-90
2021/07/04 04:11:32;;;;;;;16.20;14.80;;;18.50;97.60;;;;;;5132623;28;20218;-90
2021/07/04 04:14:00;;;;;;;15.83;14.73;;;17.20;97.60;;;;;;5100039;28;20495;-90
2021/07/04 04:16:26;;;;;;;17.73;15.43;;;21.10;99.60;;;;;;5131584;28;20427;-91
2021/07/04 04:18:53;;;;;;;15.37;14.30;;;20.70;99.90;;;;;;5130385;28;20471;-90
2021/07/04 04:21:21;;;;;;;16.80;15.47;;;19.00;95.90;;;;;;5129288;28;20435;-90
2021/07/04 04:23:49;;;;;;;14.40;13.30;;;16.90;94.50;;;;;;5132251;28;20468;-89
2021/07/04 04:26:18;;;;;;;14.77;13.70;;;18.30;99.00;;;;;;5132642;28;20438;-89
2021/07/04 04:28:47;;;;;;;14.20;13.10;;;19.10;98.10;;;;;;5134678;28;20395;-89
2021/07/04 04:31:14;;;;;;;16.97;15.53;;;19.50;99.50;;;;;;5113809;28;20435;-90
2021/07/04 04:33:43;;;;;;;14.90;13.67;;;20.80;98.90;;;;;;5112710;28;20407;-90
2021/07/04 04:36:12;;;;;;;14.83;13.73;;;21.30;99.90;;;;;;5129685;28;20395;-90
2021/07/04 04:38:39;;;;;;;15.67;14.27;;;18.80;98.50;;;;;;5129462;28;20436;-91
2021/07/04 04:41:29;;;;;;;16.13;14.80;;;19.20;95.80;;;;;;5114569;28;20442;-91
2021/07/04 04:43:56;;;;;;;16.23;14.73;;;21.90;97.60;;;;;;5131508;28;20407;-91
2021/07/04 04:46:22;;;;;;;17.43;15.87;;;19.20;98.10;;;;;;5130636;28;20457;-90
2021/07/04 04:48:48;;;;;;;15.37;14.13;;;19.20;99.00;;;;;;5130023;28;20419;-91
2021/07/04 04:51:15;;;;;;;17.80;16.10;;;19.10;99.90;;;;;;5110007;28;20201;-90
2021/07/04 04:53:41;;;;;;;22.13;15.97;;;20.10;99.90;;;;;;5127198;28;20456;-90
2021/07/04 04:56:06;;;;;;;17.80;15.90;;;18.80;99.90;;;;;;5120937;28;20419;-90
2021/07/04 04:58:32;;;;;;;18.87;17.27;;;18.40;99.90;;;;;;5120502;28;20204;-90
2021/07/04 05:00:59;;;;;;;18.87;17.27;;;18.00;99.90;;;;;;5124602;28;20174;-89
2021/07/04 05:03:26;;;;;;;18.27;16.77;;;19.30;99.90;;;;;;5126343;28;20162;-90
2021/07/04 05:05:53;;;;;;;20.90;19.03;;;19.00;98.70;;;;;;5125262;28;20475;-90
2021/07/04 05:08:19;;;;;;;19.37;17.73;;;19.60;99.90;;;;;;5123362;28;20422;-90
2021/07/04 05:10:45;;;;;;;20.00;18.33;;;18.60;99.90;;;;;;5120771;28;20430;-90
2021/07/04 05:13:10;;;;;;;19.00;17.40;;;18.20;99.90;;;;;;5123085;28;20161;-90
2021/07/04 05:15:36;;;;;;;19.17;17.17;;;20.00;99.90;;;;;;5122839;28;20479;-91
2021/07/04 05:18:06;;;;;;;18.77;17.10;;;18.20;99.90;;;;;;5121953;28;20185;-90
2021/07/04 05:20:33;;;;;;;17.30;15.90;;;19.30;99.90;;;;;;5122946;28;20161;-90
2021/07/04 05:22:58;;;;;;;19.30;17.67;;;19.00;99.90;;;;;;5121159;28;20430;-91
2021/07/04 05:25:24;;;;;;;19.93;17.90;;;18.80;99.90;;;;;;5122024;28;20470;-90
2021/07/04 05:27:50;;;;;;;20.33;18.43;;;20.70;99.90;;;;;;5123448;28;20169;-90
2021/07/04 05:30:18;;;;;;;20.07;18.27;;;20.00;99.90;;;;;;5125493;28;20180;-88
2021/07/04 05:32:44;;;;;;;20.50;18.67;;;19.50;99.90;;;;;;5123986;28;20195;-89
2021/07/04 05:35:10;;;;;;;22.03;20.17;;;20.00;99.90;;;;;;5122684;28;20427;-90
2021/07/04 05:37:36;;;;;;;21.97;19.97;;;19.00;99.90;;;;;;5121485;28;20189;-91
2021/07/04 05:40:10;;;;;;;23.17;21.17;;;21.50;99.90;;;;;;5123130;28;20798;-90
2021/07/04 05:42:36;;;;;;;24.17;21.97;;;17.40;98.50;;;;;;5124645;28;20496;-89
2021/07/04 05:45:09;;;;;;;21.50;19.60;;;21.60;99.90;;;;;;5121940;28;20495;-90
2021/07/04 05:47:35;;;;;;;20.73;18.87;;;19.00;98.10;;;;;;5122637;28;20169;-89
2021/07/04 05:50:00;;;;;;;22.30;20.20;;;18.80;99.80;;;;;;5120433;28;20438;-90
2021/07/04 05:52:26;;;;;;;21.37;19.07;;;18.30;98.40;;;;;;5119976;28;20173;-90
2021/07/04 05:54:51;;;;;;;20.13;18.27;;;21.90;99.90;;;;;;5121574;28;20180;-91
2021/07/04 05:57:17;;;;;;;17.23;15.70;;;20.70;98.60;;;;;;5119236;28;20165;-91
2021/07/04 05:59:43;;;;;;;16.70;15.30;;;22.30;98.60;;;;;;5121296;28;20173;-90
2021/07/04 06:02:09;;;;;;;17.20;15.80;;;22.80;95.80;;;;;;5120901;28;20302;-89
2021/07/04 06:04:35;;;;;;;18.87;17.20;;;21.10;93.30;;;;;;5109077;28;20208;-90
2021/07/04 06:07:04;;;;;;;17.63;16.13;;;21.90;91.90;;;;;;5038845;28;20411;-92
2021/07/04 06:09:30;;;;;;;17.83;16.43;;;21.40;91.70;;;;;;5107894;28;20444;-90
2021/07/04 06:11:55;;;;;;;19.60;18.00;;;22.20;92.50;;;;;;5107264;28;20419;-90
2021/07/04 06:14:21;;;;;;;19.17;17.57;;;23.00;94.70;;;;;;5112172;28;20425;-90
2021/07/04 06:16:47;;;;;;;24.27;18.93;;;20.80;93.60;;;;;;5108764;28;20427;-90
2021/07/04 06:19:13;;;;;;;19.30;17.90;;;22.40;95.80;;;;;;5039142;28;20229;-90
2021/07/04 06:21:38;;;;;;;18.30;17.00;;;21.00;94.40;;;;;;5109089;28;20168;-89
2021/07/04 06:24:04;;;;;;;17.13;15.90;;;22.50;94.80;;;;;;5111153;28;20182;-90
2021/07/04 06:26:30;;;;;;;17.73;16.40;;;20.80;93.70;;;;;;5115855;28;20188;-90
2021/07/04 06:28:56;;;;;;;17.83;16.57;;;22.20;95.60;;;;;;5108643;28;20530;-91
2021/07/04 06:31:23;;;;;;;16.30;15.20;;;20.80;94.50;;;;;;5110779;28;20292;-90
2021/07/04 06:33:52;;;;;;;17.00;15.80;;;23.50;93.50;;;;;;5104597;28;20168;-90
2021/07/04 06:36:18;;;;;;;16.90;15.60;;;23.90;94.90;;;;;;5109167;28;20427;-90
2021/07/04 06:38:51;;;;;;;14.97;13.97;;;26.60;96.90;;;;;;5107412;28;20430;-92
2021/07/04 06:41:19;;;;;;;13.67;12.77;;;23.20;88.30;;;;;;5107670;28;20240;-91
2021/07/04 06:44:03;;;;;;;15.70;14.20;;;22.20;80.50;;;;;;5112214;28;20426;-91
2021/07/04 06:46:43;;;;;;;14.20;12.90;;;24.90;74.60;;;;;;5106685;28;20937;-92
2021/07/04 06:49:11;;;;;;;12.37;11.63;;;25.60;68.20;;;;;;5109851;28;20415;-92
2021/07/04 06:51:45;;;;;;;13.80;12.90;;;25.80;65.90;;;;;;5054878;28;20523;-90
2021/07/04 06:54:16;;;;;;;13.00;12.30;;;27.80;61.50;;;;;;5124850;27;20422;-89
2021/07/04 06:56:44;;;;;;;13.23;12.30;;;27.50;59.30;;;;;;5136004;27;20461;-91
2021/07/04 06:59:09;;;;;;;13.60;12.70;;;26.80;57.80;;;;;;5112234;28;20495;-90
2021/07/04 07:01:46;;;;;;;13.17;12.33;;;26.60;58.00;;;;;;5111225;28;20407;-91
2021/07/04 07:04:20;;;;;;;12.77;11.80;;;26.80;57.30;;;;;;5107051;28;20242;-91
2021/07/04 07:06:45;;;;;;;13.63;12.83;;;26.80;56.10;;;;;;5107860;27;20454;-89
2021/07/04 07:09:13;;;;;;;11.90;11.20;;;28.60;56.90;;;;;;5109783;28;20407;-91
2021/07/04 07:11:39;;;;;;;13.00;12.20;;;28.40;54.10;;;;;;5093977;28;20184;-89
2021/07/04 07:14:05;;;;;;;12.87;12.00;;;27.90;54.00;;;;;;5112141;28;20471;-90
2021/07/04 07:16:32;;;;;;;14.40;13.10;;;27.90;55.20;;;;;;5110399;28;20180;-90
2021/07/04 07:19:00;;;;;;;13.57;12.57;;;26.40;55.00;;;;;;5042507;28;20184;-90
2021/07/04 07:21:45;;;;;;;13.50;12.80;;;26.40;58.60;;;;;;5094900;28;20423;-91
2021/07/04 07:24:11;;;;;;;13.50;12.57;;;27.50;58.70;;;;;;5110358;28;20518;-90
2021/07/04 07:26:37;;;;;;;13.50;12.50;;;27.70;58.90;;;;;;5109294;28;20454;-90
2021/07/04 07:29:03;;;;;;;13.43;12.43;;;26.40;57.60;;;;;;5113409;28;20168;-90
2021/07/04 07:31:35;;;;;;;13.97;12.70;;;26.70;56.40;;;;;;5099310;28;20459;-91
2021/07/04 07:34:19;;;;;;;12.20;11.40;;;28.20;57.00;;;;;;5113999;28;20407;-92
2021/07/04 07:36:56;;;;;;;12.60;11.73;;;27.00;56.40;;;;;;5045487;28;20415;-92
2021/07/04 07:39:30;;;;;;;12.03;11.20;;;26.80;56.30;;;;;;5107602;28;20431;-92
2021/07/04 07:42:08;;;;;;;13.20;12.20;;;27.10;55.30;;;;;;5038890;28;20418;-90
2021/07/04 07:44:34;;;;;;;12.50;11.53;;;25.00;54.40;;;;;;5106630;28;20557;-92
2021/07/04 07:47:21;;;;;;;14.50;13.50;;;26.00;57.90;;;;;;5107325;28;20435;-91
2021/07/04 07:49:55;;;;;;;13.83;13.03;;;26.50;57.70;;;;;;5118563;28;20176;-91
2021/07/04 07:52:38;;;;;;;13.50;12.63;;;26.10;58.10;;;;;;5052437;28;20432;-90
2021/07/04 07:55:27;;;;;;;12.90;12.10;;;26.20;57.70;;;;;;5075652;28;20460;-92
2021/07/04 07:58:04;;;;;;;12.67;11.87;;;26.50;56.10;;;;;;5120180;27;20415;-91
2021/07/04 08:00:33;;;;;;;11.60;10.83;;;27.30;56.60;;;;;;5099556;28;20461;-89
2021/07/04 08:03:54;;;;;;;;;;;;;;;;;;;;;
2021/07/04 08:06:21;;;;;;;12.83;12.03;;;27.60;53.00;;;;;;5044928;28;20490;-89
2021/07/04 08:09:02;;;;;;;12.73;11.87;;;27.50;53.40;;;;;;5101566;28;20422;-90
2021/07/04 08:12:02;;;;;;;13.10;12.30;;;29.10;54.50;;;;;;5100925;28;20434;-91
2021/07/04 08:14:29;;;;;;;12.03;11.33;;;28.10;54.10;;;;;;5034231;28;20436;-89
2021/07/04 08:16:55;;;;;;;11.53;10.80;;;27.40;53.80;;;;;;5048461;28;20430;-90
2021/07/04 08:19:20;;;;;;;11.60;10.90;;;27.90;53.70;;;;;;5052597;28;20408;-90
2021/07/04 08:22:08;;;;;;;9.50;8.90;;;29.40;51.30;;;;;;5048082;28;20164;-91
2021/07/04 08:24:40;;;;;;;9.17;8.67;;;30.80;47.80;;;;;;5048738;28;20215;-92
2021/07/04 08:27:07;;;;;;;9.10;8.60;;;31.90;46.60;;;;;;5049686;28;20979;-92
2021/07/04 08:29:39;;;;;;;8.40;8.00;;;33.50;46.00;;;;;;5050838;28;20460;-91
2021/07/04 08:32:06;;;;;;;8.70;8.30;;;32.60;41.70;;;;;;5047973;28;20414;-89
2021/07/04 08:34:44;;;;;;;8.70;8.23;;;33.40;43.00;;;;;;5050804;28;20465;-90
2021/07/04 08:37:16;;;;;;;8.23;7.90;;;32.40;42.00;;;;;;5050060;28;20433;-91
2021/07/04 08:39:51;;;;;;;7.77;7.47;;;31.60;42.50;;;;;;5033665;28;20426;-92
2021/07/04 08:42:26;;;;;;;7.53;7.13;;;31.70;43.50;;;;;;5067083;28;20422;-92
2021/07/04 08:44:56;;;;;;;7.43;7.13;;;31.50;43.10;;;;;;5049517;28;20466;-90
2021/07/04 08:48:03;;;;;;;8.50;8.20;;;31.60;43.70;;;;;;5068551;28;20406;-93
2021/07/04 08:50:33;;;;;;;7.80;7.50;;;30.40;44.10;;;;;;5041296;28;20415;-92
2021/07/04 08:53:03;;;;;;;8.23;7.83;;;30.10;46.00;;;;;;5057038;28;20451;-90
2021/07/04 08:56:00;;;;;;;7.90;7.50;;;30.80;44.90;;;;;;5053234;28;20415;-91
2021/07/04 08:58:56;;;;;;;7.43;6.93;;;31.00;43.60;;;;;;5067814;28;20434;-90
2021/07/04 09:02:04;;;;;;;8.73;8.40;;;30.50;44.00;;;;;;5070136;28;20439;-91
2021/07/04 09:04:36;;;;;;;7.70;7.40;;;31.60;43.20;;;;;;5036256;28;20472;-90
2021/07/04 09:07:08;;;;;;;7.40;7.20;;;32.90;41.70;;;;;;5056995;27;20461;-88
2021/07/04 09:10:32;;;;;;;7.77;7.47;;;33.50;41.10;;;;;;5073689;28;20403;-90
2021/07/04 09:16:08;;;;;;;10.83;10.20;;;33.60;39.40;;;;;;4224832;22;20513;-91
2021/07/04 09:18:38;;;;;;;7.90;7.60;;;32.60;39.50;;;;;;5083484;28;20412;-91
2021/07/04 09:21:25;;;;;;;7.43;7.03;;;32.30;41.50;;;;;;5097108;28;20431;-90
2021/07/04 09:24:26;;;;;;;7.10;6.80;;;31.80;43.70;;;;;;5099841;28;20428;-91
2021/07/04 09:26:53;;;;;;;8.27;7.93;;;31.30;42.20;;;;;;5099437;28;20402;-87
2021/07/04 09:29:40;;;;;;;11.93;11.17;;;30.70;44.60;;;;;;5099035;28;20412;-89
2021/07/04 09:32:39;;;;;;;8.40;8.10;;;30.10;44.20;;;;;;5099951;28;20443;-91
2021/07/04 09:35:16;;;;;;;8.10;7.57;;;29.50;44.20;;;;;;5099965;28;20408;-90
2021/07/04 09:37:51;;;;;;;8.97;8.47;;;29.50;45.40;;;;;;5097186;28;20493;-89
2021/07/04 09:40:24;;;;;;;9.60;9.00;;;31.30;48.60;;;;;;5099842;28;20486;-90
2021/07/04 09:43:07;;;;;;;8.83;8.43;;;28.50;50.00;;;;;;5095273;28;20432;-90
2021/07/04 09:45:50;;;;;;;9.20;8.70;;;27.40;50.10;;;;;;5109659;28;20537;-89
2021/07/04 09:48:28;;;;;;;9.03;8.50;;;26.90;49.60;;;;;;5116092;28;20443;-89
2021/07/04 09:51:03;;;;;;;9.40;8.90;;;25.90;50.10;;;;;;5080668;28;20424;-91
2021/07/04 09:53:37;;;;;;;9.67;9.17;;;28.50;53.20;;;;;;5098254;28;20416;-90
2021/07/04 09:56:10;;;;;;;13.57;12.43;;;;;;;;;;5114083;28;20404;-89
2021/07/04 09:58:37;;;;;;;13.70;12.70;;;25.30;66.20;;;;;;5093955;28;20487;-90
2021/07/04 10:01:12;;;;;;;13.50;12.37;;;24.80;58.80;;;;;;5075474;28;20432;-89
2021/07/04 10:03:43;;;;;;;14.47;13.27;;;24.40;61.30;;;;;;5095408;28;20423;-91
2021/07/04 10:06:12;;;;;;;13.97;12.87;;;24.30;67.50;;;;;;5096425;28;20463;-90
2021/07/04 10:08:50;;;;;;;10.00;9.50;;;26.50;72.20;;;;;;5095671;28;20416;-90
2021/07/04 10:11:16;;;;;;;10.30;9.50;;;24.80;65.40;;;;;;5111945;28;20471;-88
2021/07/04 10:13:46;;;;;;;10.50;9.70;;;27.00;58.30;;;;;;5094747;28;20431;-88
2021/07/04 10:16:20;;;;;;;7.30;6.97;;;28.60;57.30;;;;;;5099766;28;20456;-91
2021/07/04 10:18:48;;;;;;;6.83;6.43;;;28.90;53.60;;;;;;5076546;28;20400;-90
2021/07/04 10:21:15;;;;;;;7.57;7.27;;;30.50;51.90;;;;;;5072113;28;20416;-92
2021/07/04 10:23:51;;;;;;;7.30;7.10;;;30.30;49.60;;;;;;5049617;28;20436;-91
2021/07/04 10:26:27;;;;;;;6.93;6.60;;;31.60;47.10;;;;;;5064664;28;20468;-90
2021/07/04 10:28:57;;;;;;;6.60;6.30;;;32.40;47.90;;;;;;5064719;28;20496;-91
2021/07/04 10:31:30;;;;;;;6.80;6.60;;;34.00;42.60;;;;;;5067347;28;20425;-91
2021/07/04 10:34:09;;;;;;;7.00;6.73;;;34.00;43.60;;;;;;5088808;28;20918;-92
2021/07/04 10:37:06;;;;;;;6.83;6.53;;;34.50;40.90;;;;;;5089076;28;20472;-91
2021/07/04 10:39:35;;;;;;;6.57;6.10;;;33.30;38.30;;;;;;4703407;28;10000888;-91
2021/07/04 10:42:11;;;;;;;7.27;6.97;;;34.80;38.30;;;;;;5052524;28;20500;-91
2021/07/04 10:44:46;;;;;;;6.83;6.53;;;34.90;38.60;;;;;;5050604;28;20808;-91
2021/07/04 10:47:14;;;;;;;6.03;5.93;;;34.90;39.60;;;;;;5067029;28;20419;-90
2021/07/04 10:49:45;;;;;;;6.90;6.70;;;35.30;38.60;;;;;;5068889;28;20402;-89
2021/07/04 10:52:38;;;;;;;6.50;6.27;;;36.50;37.60;;;;;;5055305;28;20413;-91
2021/07/04 10:55:31;;;;;;;6.20;6.00;;;36.50;38.60;;;;;;5057954;28;20426;-91
2021/07/04 10:58:09;;;;;;;8.20;7.80;;;36.60;35.60;;;;;;5052636;28;20797;-86
2021/07/04 11:00:46;;;;;;;9.83;9.27;;;36.60;36.30;;;;;;5051413;28;20414;-91
2021/07/04 11:03:37;;;;;;;8.70;8.30;;;36.00;37.80;;;;;;5055532;28;20433;-92
2021/07/04 11:06:13;;;;;;;8.07;7.67;;;35.10;39.50;;;;;;5052449;28;20476;-89
2021/07/04 11:08:54;;;;;;;10.40;9.80;;;36.50;40.30;;;;;;5051652;28;20489;-92
2021/07/04 11:11:28;;;;;;;9.43;9.03;;;33.60;41.20;;;;;;5050037;28;20439;-91
2021/07/04 11:14:09;;;;;;;8.80;8.50;;;32.40;41.40;;;;;;5052897;28;20464;-90
2021/07/04 11:16:34;;;;;;;8.30;7.80;;;31.90;42.10;;;;;;5067565;28;20425;-89
2021/07/04 11:19:12;;;;;;;8.70;8.30;;;32.40;43.30;;;;;;5052569;28;20413;-91
2021/07/04 11:21:59;;;;;;;9.30;8.80;;;34.10;43.90;;;;;;5069181;28;20409;-92
2021/07/04 11:24:30;;;;;;;9.03;8.47;;;33.00;43.00;;;;;;5048938;28;20512;-91
2021/07/04 11:27:25;;;;;;;8.60;8.07;;;31.80;44.20;;;;;;5071973;28;20424;-92
2021/07/04 11:30:25;;;;;;;8.47;8.07;;;31.80;41.80;;;;;;5063869;28;20406;-91
2021/07/04 11:35:54;;;;;;;9.33;8.93;;;;;;;;;;5069655;28;20435;-92
2021/07/04 11:38:24;;;;;;;9.47;8.83;;;30.90;43.90;;;;;;5070630;28;20473;-90
2021/07/04 11:41:08;;;;;;;9.50;9.00;;;32.70;45.50;;;;;;5053796;28;20414;-91
2021/07/04 11:43:59;;;;;;;9.60;9.20;;;30.00;43.30;;;;;;5051357;28;20438;-89
2021/07/04 11:46:42;;;;;;;10.40;9.80;;;27.70;45.30;;;;;;5053849;28;20425;-90
2021/07/04 11:49:22;;;;;;;14.03;12.50;;;29.00;46.00;;;;;;5053356;28;20413;-89
2021/07/04 11:51:58;;;;;;;9.30;8.90;;;30.20;46.50;;;;;;5052172;28;20430;-89
2021/07/04 11:54:49;;;;;;;10.43;9.80;;;29.10;46.50;;;;;;5068786;28;20405;-91
2021/07/04 11:57:34;;;;;;;10.60;9.90;;;30.50;48.10;;;;;;5072029;28;20444;-89
2021/07/04 12:00:07;;;;;;;9.60;9.20;;;28.60;48.10;;;;;;5069948;28;20414;-89
2021/07/04 12:02:35;;;;;;;9.90;9.50;;;27.60;46.40;;;;;;5051748;28;20418;-91
2021/07/04 12:05:12;;;;;;;9.93;9.33;;;28.30;48.00;;;;;;5053793;28;20473;-91
2021/07/04 12:07:42;;;;;;;11.20;10.40;;;27.90;47.60;;;;;;5070635;28;20413;-91
2021/07/04 12:10:13;;;;;;;9.30;8.70;;;28.60;49.00;;;;;;5072415;28;20409;-90
2021/07/04 12:12:39;;;;;;;10.07;9.20;;;28.20;48.10;;;;;;5071995;28;20430;-89
2021/07/04 12:15:15;;;;;;;10.77;10.07;;;29.60;51.80;;;;;;5059833;28;20509;-90
2021/07/04 12:17:46;;;;;;;10.50;10.00;;;;;;;;;;5070671;28;20427;-90
2021/07/04 12:20:21;;;;;;;12.23;11.10;;;27.70;73.30;;;;;;5067837;28;20413;-90
2021/07/04 12:22:54;;;;;;;13.70;12.80;;;29.40;51.90;;;;;;5073070;28;20619;-90
2021/07/04 12:25:26;;;;;;;12.10;11.33;;;28.40;51.90;;;;;;5091271;28;20460;-90
2021/07/04 12:28:00;;;;;;;11.27;10.20;;;27.10;50.70;;;;;;5089230;28;20417;-89
2021/07/04 12:30:30;;;;;;;11.20;10.60;;;26.80;50.20;;;;;;5072364;28;20894;-90
2021/07/04 12:33:21;;;;;;;11.03;10.50;;;29.00;55.00;;;;;;5088321;28;20428;-89
2021/07/04 12:35:55;;;;;;;12.10;11.30;;;27.20;49.00;;;;;;5079670;28;20396;-89
2021/07/04 12:38:23;;;;;;;10.10;9.50;;;28.60;50.80;;;;;;5081497;28;20435;-90
2021/07/04 12:41:09;;;;;;;9.83;9.33;;;29.80;51.40;;;;;;5083315;28;20444;-90
2021/07/04 12:43:45;;;;;;;9.40;9.00;;;27.70;48.80;;;;;;5073847;28;20420;-91
2021/07/04 12:46:23;;;;;;;9.00;8.50;;;28.60;48.90;;;;;;5071639;28;20498;-91
2021/07/04 12:48:54;;;;;;;9.77;9.17;;;28.00;48.20;;;;;;5088535;28;20907;-90
2021/07/04 12:51:26;;;;;;;10.03;9.53;;;26.80;48.00;;;;;;5072400;28;20455;-90
2021/07/04 12:53:51;;;;;;;9.80;9.20;;;30.70;51.10;;;;;;5073957;28;20401;-90
2021/07/04 12:56:18;;;;;;;8.37;7.97;;;30.30;53.60;;;;;;5072009;28;20428;-91
2021/07/04 12:58:58;;;;;;;8.50;8.20;;;26.40;48.20;;;;;;5072342;28;20421;-88
2021/07/04 13:01:26;;;;;;;5.90;5.70;;;27.70;48.50;;;;;;5073105;28;20440;-90
2021/07/04 13:04:09;;;;;;;5.90;5.60;;;29.90;49.40;;;;;;5085806;28;20405;-89